Time;durP1;ratioP1;P1;durP2;ratioP2;P2;SDS_P1;SDS_P2;PMS_P1;PMS_P2;Temp;Humidity;BMP_temperature;BMP_pressure;BME280_temperature;BME280_humidity;BME280_pressure;Samples;Min_cycle;Max_cycle;Signal;HPM_P1;HPM_P2
2022/01/18 00:02:21;;;;;;;0.30;0.30;;;6.00;93.30;5.90;97802.00;;;;5017899;28;20222;-83
2022/01/18 00:05:13;;;;;;;0.30;0.30;;;6.00;94.10;6.00;97812.00;;;;5010716;28;20225;-83
2022/01/18 00:08:02;;;;;;;0.30;0.30;;;6.00;94.70;6.00;97822.00;;;;5001084;28;20206;-83
2022/01/18 00:10:51;;;;;;;0.30;0.30;;;6.00;95.40;6.00;97827.00;;;;4994295;28;20220;-83
2022/01/18 00:13:43;;;;;;;0.20;0.20;;;6.00;96.10;5.90;97837.00;;;;4999665;28;20236;-83
2022/01/18 00:16:38;;;;;;;0.40;0.40;;;5.90;97.00;5.80;97843.00;;;;5007203;28;20213;-83
2022/01/18 00:19:27;;;;;;;0.50;0.30;;;5.90;98.00;5.80;97837.00;;;;5011258;28;20209;-83
2022/01/18 00:22:18;;;;;;;0.40;0.40;;;5.90;98.80;5.80;97843.00;;;;5010973;28;20247;-83
2022/01/18 00:25:07;;;;;;;0.30;0.30;;;5.80;99.70;5.60;97834.00;;;;5010586;28;20210;-83
2022/01/18 00:27:56;;;;;;;0.50;0.40;;;5.80;99.90;5.20;97845.00;;;;5012082;28;20202;-83
2022/01/18 00:34:06;;;;;;;2.43;0.40;;;5.60;99.90;5.40;97850.00;;;;4991238;28;20233;-82
2022/01/18 00:37:24;;;;;;;0.43;0.30;;;5.50;99.90;5.70;97865.00;;;;5010523;28;20205;-82
2022/01/18 00:40:13;;;;;;;0.40;0.40;;;5.60;99.90;5.40;97860.00;;;;5003199;28;20199;-83
2022/01/18 00:43:02;;;;;;;1.07;0.50;;;5.60;99.90;5.40;97869.00;;;;4999822;28;20609;-83
2022/01/18 00:45:51;;;;;;;1.07;0.40;;;5.50;99.90;5.40;97863.00;;;;5005034;28;20234;-83
2022/01/18 00:48:41;;;;;;;0.30;0.30;;;5.50;99.90;5.40;97876.00;;;;4995859;28;20305;-83
2022/01/18 00:51:36;;;;;;;2.50;0.50;;;5.50;99.90;5.20;97877.00;;;;5011249;28;20237;-83
2022/01/18 00:54:33;;;;;;;0.50;0.40;;;5.40;99.90;5.00;97881.00;;;;5012394;28;20214;-83
2022/01/18 00:57:22;;;;;;;0.30;0.30;;;5.30;99.90;4.90;97888.00;;;;5011366;28;20205;-82
2022/01/18 01:00:12;;;;;;;0.30;0.20;;;5.30;99.90;4.90;97890.00;;;;5011260;28;20214;-83
2022/01/18 01:03:01;;;;;;;0.30;0.30;;;5.30;99.90;4.80;97894.00;;;;5014214;28;20236;-83
2022/01/18 01:05:50;;;;;;;0.20;0.20;;;5.20;99.90;4.70;97890.00;;;;5005930;28;20232;-83
2022/01/18 01:08:41;;;;;;;0.40;0.40;;;5.10;99.90;4.90;97901.00;;;;5019120;28;20202;-83
2022/01/18 01:11:30;;;;;;;0.40;0.30;;;5.10;99.90;4.70;97899.00;;;;5017373;28;20198;-83
2022/01/18 01:14:22;;;;;;;0.40;0.40;;;5.00;99.90;4.80;97917.00;;;;5019311;28;20226;-83
2022/01/18 01:36:00;;;;;;;0.30;0.30;;;4.80;99.90;4.30;97921.00;;;;5007655;28;20437;-82
2022/01/18 01:42:07;;;;;;;0.20;0.20;;;4.70;99.90;4.20;97912.00;;;;4999092;28;20814;-83
2022/01/18 01:44:58;;;;;;;0.37;0.30;;;4.60;99.90;4.30;97926.00;;;;4995890;28;20426;-82
2022/01/18 01:47:51;;;;;;;0.40;0.40;;;4.60;99.90;4.00;97925.00;;;;5009877;28;20428;-82
2022/01/18 01:50:45;;;;;;;0.30;0.30;;;4.60;99.90;3.90;97919.00;;;;5007271;28;20425;-83
2022/01/18 01:53:36;;;;;;;0.60;0.60;;;4.50;99.90;4.00;97912.00;;;;5007617;28;20481;-82
2022/01/18 01:56:26;;;;;;;0.20;0.20;;;4.40;99.90;3.80;97911.00;;;;5008671;28;20418;-82
2022/01/18 01:59:16;;;;;;;0.30;0.30;;;4.40;99.90;4.00;97907.00;;;;5008863;28;20437;-81
2022/01/18 02:02:06;;;;;;;0.40;0.40;;;4.30;99.90;3.90;97920.00;;;;5008752;28;20436;-82
2022/01/18 02:04:55;;;;;;;0.30;0.30;;;4.30;99.90;3.90;97918.00;;;;5004225;28;20847;-82
2022/01/18 02:07:43;;;;;;;0.77;0.40;;;4.20;99.90;3.80;97915.00;;;;4998494;28;20432;-82
2022/01/18 02:10:32;;;;;;;0.30;0.30;;;4.20;99.90;3.80;97924.00;;;;5008808;28;20429;-82
2022/01/18 02:13:21;;;;;;;0.30;0.30;;;4.20;99.90;3.60;97911.00;;;;5008533;28;20875;-82
2022/01/18 02:21:46;;;;;;;0.50;0.50;;;4.10;99.90;3.60;97912.00;;;;5008156;28;20440;-83
2022/01/18 02:22:37;;;;;;;0.70;0.40;;;4.10;99.90;3.90;97916.00;;;;5007409;28;20465;-84
2022/01/18 02:25:26;;;;;;;0.30;0.30;;;4.10;99.90;3.80;97902.00;;;;5008149;28;20515;-82
2022/01/18 02:28:16;;;;;;;0.30;0.30;;;4.10;99.90;3.80;97901.00;;;;5008469;28;20433;-82
2022/01/18 02:31:06;;;;;;;0.40;0.40;;;4.10;99.90;3.70;97902.00;;;;5007835;28;20217;-82
2022/01/18 02:33:55;;;;;;;0.30;0.30;;;4.10;99.90;3.60;97903.00;;;;5008846;28;20475;-83
2022/01/18 02:36:45;;;;;;;0.30;0.30;;;4.00;99.90;3.50;97905.00;;;;5006681;28;20790;-82
2022/01/18 02:39:36;;;;;;;0.30;0.30;;;3.90;99.90;3.80;97922.00;;;;5008336;28;20528;-82
2022/01/18 02:42:31;;;;;;;0.40;0.40;;;3.90;99.90;3.60;97905.00;;;;4997207;28;20977;-82
2022/01/18 02:45:20;;;;;;;0.30;0.30;;;4.00;99.90;3.80;97916.00;;;;5008179;28;20433;-82
2022/01/18 02:48:08;;;;;;;0.30;0.30;;;3.90;99.90;3.80;97921.00;;;;5007656;28;20421;-82
2022/01/18 02:50:57;;;;;;;0.40;0.40;;;4.00;99.90;3.80;97917.00;;;;5006793;28;20433;-82
2022/01/18 02:54:03;;;;;;;0.20;0.20;;;3.90;99.90;3.30;97911.00;;;;5008685;28;20476;-83
2022/01/18 02:56:59;;;;;;;0.30;0.30;;;3.90;99.90;2.60;97916.00;;;;5007123;28;20428;-82
2022/01/18 02:59:51;;;;;;;0.30;0.30;;;3.60;99.90;2.50;97928.00;;;;5007075;28;20422;-82
2022/01/18 03:05:55;;;;;;;0.30;0.30;;;3.20;99.90;2.60;97933.00;;;;4978478;28;20938;-82
2022/01/18 03:08:44;;;;;;;0.30;0.30;;;3.10;99.90;2.50;97940.00;;;;5008596;28;20421;-82
2022/01/18 03:11:34;;;;;;;0.30;0.30;;;3.10;99.90;2.90;97946.00;;;;5005986;28;20421;-82
2022/01/18 03:14:24;;;;;;;0.30;0.30;;;3.00;99.90;2.90;97938.00;;;;5006208;28;20473;-82
2022/01/18 03:17:13;;;;;;;0.40;0.40;;;3.10;99.90;2.70;97951.00;;;;5005195;28;20417;-82
2022/01/18 03:20:03;;;;;;;0.40;0.40;;;3.20;99.90;2.90;97953.00;;;;5013210;28;20433;-82
2022/01/18 03:22:52;;;;;;;0.40;0.40;;;3.20;99.90;3.00;97957.00;;;;5013431;28;20457;-82
2022/01/18 03:25:53;;;;;;;0.30;0.30;;;3.30;99.90;3.20;97966.00;;;;5012485;28;20433;-83
2022/01/18 03:28:42;;;;;;;0.40;0.40;;;3.30;99.90;3.30;97966.00;;;;5014407;28;20433;-83
2022/01/18 03:31:32;;;;;;;0.40;0.40;;;3.40;99.90;3.10;97959.00;;;;5011828;28;20457;-84
2022/01/18 03:34:21;;;;;;;0.40;0.30;;;3.50;99.90;3.00;97953.00;;;;5012042;28;20483;-83
2022/01/18 03:37:10;;;;;;;0.50;0.50;;;3.50;99.90;3.00;97957.00;;;;5012515;28;20422;-83
2022/01/18 03:39:59;;;;;;;0.37;0.37;;;3.50;99.90;2.80;97956.00;;;;5008448;28;20439;-83
2022/01/18 03:42:58;;;;;;;;;;;;;;;;;;;;;
2022/01/18 03:45:54;;;;;;;0.40;0.40;;;3.40;99.90;2.80;97969.00;;;;5005308;28;20429;-85
2022/01/18 03:48:50;;;;;;;0.30;0.30;;;3.30;99.90;2.80;97956.00;;;;5007701;28;20482;-84
2022/01/18 03:51:38;;;;;;;0.30;0.30;;;3.30;99.90;3.00;97969.00;;;;5009472;28;20942;-84
2022/01/18 03:54:27;;;;;;;0.40;0.40;;;3.30;99.90;3.00;97970.00;;;;5009964;28;20483;-84
2022/01/18 03:57:17;;;;;;;0.30;0.30;;;3.30;99.90;3.00;97970.00;;;;5009024;28;20435;-85
2022/01/18 04:00:10;;;;;;;0.40;0.40;;;3.30;99.90;2.90;97975.00;;;;5010809;28;20451;-84
2022/01/18 04:02:59;;;;;;;1.80;0.33;;;3.40;99.90;3.00;97970.00;;;;5009006;28;20474;-84
2022/01/18 04:05:52;;;;;;;0.30;0.30;;;3.40;99.90;3.10;97976.00;;;;5005384;28;20465;-84
2022/01/18 04:08:41;;;;;;;0.30;0.30;;;3.40;99.90;2.90;97987.00;;;;5010621;28;20422;-84
2022/01/18 04:11:31;;;;;;;0.30;0.30;;;3.30;99.90;3.00;97983.00;;;;5009993;28;20441;-82
2022/01/18 04:14:19;;;;;;;0.20;0.20;;;3.30;99.90;3.10;97990.00;;;;5011821;28;20473;-83
2022/01/18 04:17:16;;;;;;;0.30;0.30;;;3.40;99.90;3.00;97996.00;;;;5008933;28;20428;-83
2022/01/18 04:29:24;;;;;;;0.30;0.30;;;3.10;99.90;2.90;98027.00;;;;5007192;28;20459;-82
2022/01/18 04:32:13;;;;;;;0.30;0.30;;;3.00;99.90;2.90;98036.00;;;;5008309;28;20429;-83
2022/01/18 04:35:02;;;;;;;0.83;0.30;;;3.00;99.90;2.90;98046.00;;;;5000022;28;20920;-84
2022/01/18 04:37:51;;;;;;;0.53;0.53;;;3.00;99.90;2.90;98052.00;;;;5009974;28;20429;-84
2022/01/18 04:40:44;;;;;;;0.43;0.43;;;2.90;99.90;2.90;98063.00;;;;5000600;28;20465;-85
2022/01/18 04:43:47;;;;;;;0.30;0.30;;;2.90;99.90;2.90;98057.00;;;;5000959;28;20456;-85
2022/01/18 04:49:43;;;;;;;2.17;1.70;;;2.90;99.90;2.80;98067.00;;;;5010441;28;20432;-85
2022/01/18 04:52:32;;;;;;;3.50;2.33;;;2.90;99.90;2.90;98074.00;;;;5009913;28;20461;-85
2022/01/18 04:55:21;;;;;;;4.57;2.10;;;2.80;99.90;2.90;98065.00;;;;5010733;28;20438;-83
2022/01/18 04:58:11;;;;;;;2.63;2.37;;;2.90;99.90;2.90;98081.00;;;;5011926;28;20443;-83
2022/01/18 05:01:04;;;;;;;2.30;1.87;;;2.90;99.90;3.00;98088.00;;;;5009885;28;20422;-83
2022/01/18 05:03:53;;;;;;;1.80;1.70;;;2.90;99.90;2.90;98097.00;;;;5006962;28;20488;-83
2022/01/18 05:06:44;;;;;;;3.07;2.00;;;2.90;99.90;2.90;98089.00;;;;4997757;28;20438;-82
2022/01/18 05:09:32;;;;;;;3.07;2.63;;;2.90;99.90;2.80;98101.00;;;;4997712;28;20798;-82
2022/01/18 05:12:35;;;;;;;1.97;1.87;;;2.80;99.90;2.80;98092.00;;;;4997780;28;20437;-83
2022/01/18 05:15:40;;;;;;;2.40;2.20;;;2.80;99.90;2.70;98086.00;;;;5010005;28;20472;-85
2022/01/18 05:24:41;;;;;;;2.53;2.10;;;2.70;99.90;2.60;98102.00;;;;5000514;28;20430;-84
2022/01/18 05:27:30;;;;;;;2.63;2.43;;;2.60;99.90;2.70;98102.00;;;;4996800;28;20419;-83
2022/01/18 05:30:19;;;;;;;3.60;2.30;;;2.60;99.90;2.70;98103.00;;;;4991823;28;20417;-85
2022/01/18 05:33:09;;;;;;;2.63;2.43;;;2.70;99.90;2.70;98105.00;;;;5007251;28;20449;-83
2022/01/18 05:35:58;;;;;;;4.80;2.80;;;2.70;99.90;2.80;98115.00;;;;4995012;28;20426;-83
2022/01/18 05:38:47;;;;;;;2.43;2.23;;;2.70;99.90;2.70;98106.00;;;;5005514;28;20451;-83
2022/01/18 05:41:36;;;;;;;2.70;2.50;;;2.70;99.90;2.60;98114.00;;;;4993392;28;20417;-83
2022/01/18 05:44:25;;;;;;;2.73;2.53;;;2.70;99.90;2.60;98119.00;;;;5004300;28;20445;-83
2022/01/18 05:47:14;;;;;;;3.03;2.73;;;2.70;99.90;2.60;98130.00;;;;5000262;28;20419;-83
2022/01/18 05:50:06;;;;;;;3.30;3.00;;;2.60;99.90;2.70;98123.00;;;;5003136;28;20433;-84
2022/01/18 05:52:55;;;;;;;3.30;2.40;;;2.60;99.90;2.60;98120.00;;;;5001301;28;20450;-86
2022/01/18 05:55:44;;;;;;;3.10;2.57;;;2.60;99.90;2.70;98128.00;;;;4994534;28;21017;-85
2022/01/18 05:58:33;;;;;;;3.30;2.00;;;2.60;99.90;2.60;98132.00;;;;4994690;28;20830;-85
2022/01/18 06:01:26;;;;;;;2.47;2.10;;;2.60;99.90;2.60;98137.00;;;;4998398;28;20429;-86
2022/01/18 06:06:50;;;;;;;5.17;2.70;;;2.60;99.90;2.50;98137.00;;;;5007961;28;20873;-86
2022/01/18 06:07:27;;;;;;;3.77;2.30;;;2.60;99.90;2.50;98137.00;;;;5002467;28;20433;-86
2022/01/18 06:10:16;;;;;;;2.73;2.43;;;2.60;99.90;2.60;98150.00;;;;4997150;28;20448;-85
2022/01/18 06:13:07;;;;;;;3.87;3.17;;;2.50;99.90;2.50;98156.00;;;;4992407;28;20974;-85
2022/01/18 06:15:56;;;;;;;3.57;2.80;;;2.60;99.90;2.40;98152.00;;;;4999102;28;20439;-85
2022/01/18 06:18:45;;;;;;;4.70;2.53;;;2.50;99.90;2.20;98141.00;;;;5007380;28;20953;-85
2022/01/18 06:21:34;;;;;;;4.13;3.10;;;2.50;99.90;2.30;98142.00;;;;5006973;28;20441;-86
2022/01/18 06:24:24;;;;;;;3.20;2.90;;;2.40;99.90;2.20;98137.00;;;;5007736;28;20463;-85
2022/01/18 06:27:25;;;;;;;5.90;3.17;;;2.40;99.90;2.30;98148.00;;;;5001703;28;20434;-85
2022/01/18 06:30:14;;;;;;;3.30;3.00;;;2.40;99.90;2.30;98147.00;;;;5000577;28;20441;-85
2022/01/18 06:33:04;;;;;;;3.97;3.07;;;2.40;99.90;2.10;98153.00;;;;4994888;28;20444;-83
2022/01/18 06:35:53;;;;;;;4.40;3.20;;;2.40;99.90;2.10;98148.00;;;;4991630;28;20843;-83
2022/01/18 06:38:42;;;;;;;3.73;3.20;;;2.40;99.90;2.20;98146.00;;;;5002332;28;20816;-83
2022/01/18 06:41:32;;;;;;;3.20;2.90;;;2.30;99.90;2.30;98153.00;;;;5005852;28;20432;-83
2022/01/18 06:44:22;;;;;;;3.07;2.77;;;2.30;99.90;2.20;98150.00;;;;4994482;28;20452;-83
2022/01/18 06:47:11;;;;;;;2.80;2.50;;;2.30;99.90;1.90;98164.00;;;;5003257;28;20445;-83
2022/01/18 06:50:00;;;;;;;3.03;2.77;;;2.30;99.90;1.80;98170.00;;;;5001184;28;20439;-85
2022/01/18 06:52:48;;;;;;;2.97;2.70;;;2.20;99.90;1.80;98167.00;;;;5001919;28;20450;-85
2022/01/18 06:55:37;;;;;;;3.00;2.40;;;2.10;99.90;1.90;98183.00;;;;4995987;28;20566;-84
2022/01/18 06:58:28;;;;;;;2.43;2.23;;;2.00;99.90;1.70;98187.00;;;;4993685;28;20419;-85
2022/01/18 07:01:17;;;;;;;2.13;1.93;;;2.00;99.90;0.90;98181.00;;;;4990895;28;20799;-85
2022/01/18 07:04:06;;;;;;;2.63;1.97;;;1.90;99.90;0.30;98175.00;;;;4998967;28;20457;-85
2022/01/18 07:06:55;;;;;;;2.53;2.00;;;1.60;99.90;0.60;98180.00;;;;4995943;28;20441;-85
2022/01/18 07:09:44;;;;;;;2.50;1.80;;;1.90;99.90;0.70;98182.00;;;;5009001;28;20534;-86
2022/01/18 07:12:35;;;;;;;1.60;1.50;;;1.40;99.90;0.40;98187.00;;;;5008382;28;20456;-83
2022/01/18 07:15:25;;;;;;;1.50;1.33;;;1.10;99.90;0.40;98182.00;;;;5007781;28;20481;-83
2022/01/18 07:18:14;;;;;;;1.83;1.73;;;1.30;99.90;0.20;98179.00;;;;4998644;28;20448;-83
2022/01/18 07:21:03;;;;;;;2.43;2.20;;;1.10;99.90;0.20;98186.00;;;;4999022;28;20959;-86
2022/01/18 07:24:02;;;;;;;2.47;2.00;;;1.50;99.90;0.80;98192.00;;;;5007256;28;20487;-85
2022/01/18 07:26:51;;;;;;;2.93;1.97;;;0.90;99.90;0.60;98184.00;;;;5011841;28;20432;-83
2022/01/18 07:29:42;;;;;;;3.63;2.67;;;1.00;99.90;0.80;98195.00;;;;5010968;28;20892;-84
2022/01/18 07:32:32;;;;;;;3.70;2.80;;;1.10;99.90;1.20;98200.00;;;;5002701;28;20487;-83
2022/01/18 07:35:22;;;;;;;3.30;2.57;;;1.10;99.90;1.00;98196.00;;;;5000006;28;20469;-85
2022/01/18 07:38:15;;;;;;;2.63;2.23;;;1.50;99.90;0.70;98202.00;;;;5011699;28;20436;-86
2022/01/18 07:41:04;;;;;;;2.50;2.10;;;1.20;99.90;0.60;98206.00;;;;5009243;28;20441;-85
2022/01/18 07:43:53;;;;;;;2.63;2.43;;;1.30;99.90;0.90;98216.00;;;;5011792;28;20866;-86
2022/01/18 07:46:43;;;;;;;4.67;4.20;;;1.10;99.90;0.90;98225.00;;;;5010812;28;20433;-86
2022/01/18 07:49:33;;;;;;;3.77;2.67;;;1.20;99.90;0.90;98226.00;;;;5010560;28;20422;-85
2022/01/18 07:52:22;;;;;;;2.43;2.00;;;1.30;99.90;1.10;98231.00;;;;5007128;28;20424;-85
2022/01/18 07:55:11;;;;;;;6.50;3.40;;;1.30;99.90;0.90;98232.00;;;;5012265;28;21555;-83
2022/01/18 07:58:00;;;;;;;9.43;7.03;;;1.20;99.90;0.90;98236.00;;;;5011685;28;20433;-86
2022/01/18 08:00:50;;;;;;;11.40;9.00;;;1.20;99.90;0.80;98230.00;;;;5013411;28;20435;-86
2022/01/18 08:03:38;;;;;;;17.33;14.07;;;1.20;99.90;1.10;98231.00;;;;5004601;28;20478;-85
2022/01/18 08:06:29;;;;;;;14.13;10.00;;;1.30;99.90;1.50;98246.00;;;;5004657;28;20430;-86
2022/01/18 08:09:19;;;;;;;3.23;2.93;;;1.90;99.90;1.00;98227.00;;;;5003355;28;20970;-85
2022/01/18 08:12:09;;;;;;;2.07;1.97;;;2.10;99.90;1.00;98227.00;;;;5013943;28;21037;-85
2022/01/18 08:15:11;;;;;;;27.70;13.43;;;1.50;99.90;1.20;98241.00;;;;5014146;28;21714;-85
2022/01/18 08:18:13;;;;;;;13.10;8.63;;;1.50;99.90;1.30;98238.00;;;;5003573;28;20426;-86
2022/01/18 08:21:02;;;;;;;5.60;4.50;;;1.50;99.90;1.30;98235.00;;;;5006128;28;20993;-85
2022/01/18 08:23:52;;;;;;;6.20;4.60;;;1.60;99.90;1.40;98249.00;;;;5014197;28;20452;-85
2022/01/18 08:26:41;;;;;;;2.93;2.73;;;1.60;99.90;1.80;98236.00;;;;5010235;28;20436;-84
2022/01/18 08:29:30;;;;;;;3.80;3.50;;;2.10;99.90;1.90;98255.00;;;;5007462;28;20440;-85
2022/01/18 08:32:34;;;;;;;2.77;2.33;;;1.80;99.90;2.00;98257.00;;;;4996345;28;20481;-84
2022/01/18 08:35:24;;;;;;;3.07;2.50;;;2.00;99.90;2.00;98255.00;;;;5007014;28;20484;-83
2022/01/18 08:38:13;;;;;;;3.23;2.93;;;2.10;99.90;1.90;98267.00;;;;4999990;28;20421;-86
2022/01/18 08:41:06;;;;;;;2.93;2.63;;;2.20;99.90;2.40;98268.00;;;;4997654;28;20935;-84
2022/01/18 08:43:55;;;;;;;3.03;2.33;;;2.20;99.90;2.80;98260.00;;;;5000719;28;20453;-84
2022/01/18 08:46:44;;;;;;;9.03;3.53;;;2.30;99.90;3.20;98268.00;;;;4990281;28;20944;-83
2022/01/18 08:49:33;;;;;;;3.97;3.57;;;2.50;99.90;3.50;98282.00;;;;4996378;28;20437;-84
2022/01/18 08:52:23;;;;;;;4.80;3.30;;;2.80;99.90;3.60;98266.00;;;;5010036;28;20449;-85
2022/01/18 08:55:11;;;;;;;4.33;3.93;;;3.10;99.90;3.60;98278.00;;;;5008467;28;20862;-86
2022/01/18 08:58:02;;;;;;;5.10;4.30;;;3.30;99.90;4.00;98282.00;;;;5007620;28;20441;-84
2022/01/18 09:00:51;;;;;;;2.70;2.50;;;3.50;99.90;3.40;98265.00;;;;5003921;28;20431;-83
2022/01/18 09:03:40;;;;;;;9.57;4.00;;;3.60;99.90;3.20;98261.00;;;;5000014;28;20467;-84
2022/01/18 09:06:30;;;;;;;3.30;2.70;;;3.60;99.90;3.40;98275.00;;;;4995702;28;20445;-84
2022/01/18 09:09:20;;;;;;;4.30;3.80;;;3.60;99.90;3.80;98282.00;;;;4999839;28;20992;-84
2022/01/18 09:12:11;;;;;;;9.23;3.27;;;3.60;99.90;3.90;98283.00;;;;5008355;28;20437;-83
2022/01/18 09:15:05;;;;;;;4.67;3.80;;;3.70;99.90;4.10;98274.00;;;;4998172;28;20453;-84
2022/01/18 09:17:55;;;;;;;5.70;5.00;;;3.80;99.90;4.40;98288.00;;;;5004701;28;20661;-84
2022/01/18 09:20:44;;;;;;;3.17;2.90;;;4.00;99.90;4.30;98295.00;;;;4989306;28;20860;-84
2022/01/18 09:23:33;;;;;;;6.33;3.50;;;4.20;99.90;4.40;98282.00;;;;4998804;28;20222;-84
2022/01/18 09:26:21;;;;;;;4.20;3.80;;;4.30;99.90;4.40;98282.00;;;;5007779;28;20206;-84
2022/01/18 09:29:11;;;;;;;5.63;3.73;;;4.40;99.90;4.70;98279.00;;;;5003681;28;20195;-84
2022/01/18 09:32:01;;;;;;;4.83;3.53;;;4.50;99.90;4.70;98288.00;;;;5004133;28;20422;-84
2022/01/18 09:34:50;;;;;;;3.47;3.17;;;4.60;99.90;4.60;98286.00;;;;4996604;28;20228;-84
2022/01/18 09:37:39;;;;;;;5.57;3.80;;;4.70;99.90;4.80;98280.00;;;;5004810;28;20206;-84
2022/01/18 09:40:30;;;;;;;7.37;4.83;;;4.80;99.90;5.30;98282.00;;;;5008733;28;20520;-84
2022/01/18 09:43:19;;;;;;;6.53;4.50;;;4.90;99.90;5.80;98289.00;;;;5008316;28;20236;-83
2022/01/18 09:46:08;;;;;;;4.83;4.07;;;5.00;99.90;5.40;98273.00;;;;5006809;28;20581;-84
2022/01/18 09:49:00;;;;;;;5.37;3.07;;;5.20;99.90;5.30;98271.00;;;;5009213;28;20752;-84
2022/01/18 09:51:49;;;;;;;3.67;3.37;;;5.20;99.90;6.00;98287.00;;;;5009281;28;20581;-85
2022/01/18 09:54:38;;;;;;;3.20;2.90;;;5.40;99.90;6.30;98273.00;;;;5008620;28;20612;-85
2022/01/18 09:57:27;;;;;;;4.30;3.20;;;5.60;99.90;5.60;98269.00;;;;5009026;28;20233;-85
2022/01/18 10:00:17;;;;;;;5.70;3.47;;;5.70;99.90;6.20;98266.00;;;;5008331;28;20198;-85
2022/01/18 10:03:10;;;;;;;4.03;3.13;;;5.80;99.90;6.60;98268.00;;;;5008070;28;20240;-85
2022/01/18 10:06:02;;;;;;;3.97;3.57;;;5.90;99.90;5.60;98253.00;;;;5002950;28;20578;-86
2022/01/18 10:08:53;;;;;;;3.60;3.10;;;6.10;99.90;5.10;98245.00;;;;5001802;28;20731;-86
2022/01/18 10:12:01;;;;;;;4.60;3.50;;;5.80;99.90;5.60;98247.00;;;;5006215;28;20209;-85
2022/01/18 10:14:54;;;;;;;6.70;4.30;;;5.70;99.90;6.00;98254.00;;;;5001812;28;20694;-86
2022/01/18 10:17:43;;;;;;;3.40;2.63;;;5.80;99.90;6.30;98263.00;;;;5005430;28;20229;-85
2022/01/18 10:20:48;;;;;;;3.97;2.37;;;6.00;99.90;6.30;98259.00;;;;5003333;28;20252;-86
2022/01/18 10:23:39;;;;;;;3.87;2.40;;;6.00;99.90;7.10;98244.00;;;;4998407;28;20233;-85
2022/01/18 10:26:30;;;;;;;4.00;2.60;;;6.20;99.90;7.70;98253.00;;;;5005582;28;20587;-85
2022/01/18 10:29:26;;;;;;;3.83;3.43;;;6.50;99.90;8.10;98250.00;;;;5006735;28;20206;-85
2022/01/18 10:32:19;;;;;;;6.50;3.20;;;6.80;99.90;8.40;98242.00;;;;5007581;28;20210;-86
2022/01/18 10:35:10;;;;;;;3.30;3.00;;;7.20;99.90;9.20;98237.00;;;;5006077;28;20202;-86
2022/01/18 10:37:58;;;;;;;3.23;2.93;;;7.90;99.90;10.10;98252.00;;;;5001426;28;20230;-86
2022/01/18 10:40:49;;;;;;;2.60;2.40;;;9.10;99.90;11.00;98241.00;;;;5003595;28;20213;-86
2022/01/18 10:43:37;;;;;;;4.67;3.00;;;10.60;99.90;11.50;98234.00;;;;5000657;28;20317;-86
2022/01/18 10:46:36;;;;;;;5.00;2.40;;;11.60;96.20;10.70;98243.00;;;;5006814;28;20206;-89
2022/01/18 10:49:31;;;;;;;1.43;1.17;;;12.10;85.00;10.50;98223.00;;;;5008789;28;20687;-90
2022/01/18 10:52:24;;;;;;;3.93;1.20;;;12.10;77.80;11.70;98222.00;;;;5006754;28;20205;-91
2022/01/18 10:55:18;;;;;;;1.80;0.90;;;12.30;78.40;11.90;98232.00;;;;5006594;28;20209;-89
2022/01/18 10:58:12;;;;;;;3.57;0.70;;;12.60;70.20;12.50;98236.00;;;;5006902;28;20222;-90
2022/01/18 11:01:17;;;;;;;0.57;0.40;;;12.80;65.50;12.30;98236.00;;;;5010966;28;20193;-90
2022/01/18 11:04:08;;;;;;;0.50;0.40;;;13.00;59.10;12.00;98236.00;;;;5002079;28;20319;-90
2022/01/18 11:07:00;;;;;;;0.47;0.30;;;12.80;59.20;11.60;98242.00;;;;5002234;28;20232;-90
2022/01/18 11:09:50;;;;;;;0.83;0.40;;;12.40;59.30;10.50;98246.00;;;;5006540;28;20671;-90
2022/01/18 11:12:49;;;;;;;0.77;0.43;;;11.70;57.70;10.30;98247.00;;;;5011591;28;20225;-90
2022/01/18 11:15:45;;;;;;;3.67;0.70;;;11.10;58.80;10.00;98243.00;;;;4999454;28;20675;-90
2022/01/18 11:18:36;;;;;;;0.93;0.33;;;10.60;59.80;9.90;98241.00;;;;5009149;28;20210;-87
2022/01/18 11:21:25;;;;;;;0.40;0.40;;;10.30;60.20;9.50;98208.00;;;;5009618;28;20297;-91
2022/01/18 11:24:16;;;;;;;0.40;0.40;;;10.00;60.60;10.10;98224.00;;;;5009973;28;20225;-89
2022/01/18 11:27:11;;;;;;;0.40;0.40;;;9.90;61.20;10.10;98216.00;;;;5009964;28;20702;-90
2022/01/18 11:30:00;;;;;;;1.27;0.30;;;10.00;59.80;10.40;98253.00;;;;5010439;28;20253;-89
2022/01/18 11:32:51;;;;;;;0.33;0.33;;;10.10;59.90;10.30;98225.00;;;;5010473;28;20251;-90
2022/01/18 11:35:50;;;;;;;0.43;0.40;;;10.20;59.60;10.40;98258.00;;;;5011865;28;20201;-90
2022/01/18 11:38:45;;;;;;;1.07;0.40;;;10.40;58.80;10.80;98219.00;;;;5001987;28;20210;-90
2022/01/18 11:41:36;;;;;;;0.97;0.80;;;10.50;58.30;11.70;98214.00;;;;5009907;28;20202;-89
2022/01/18 11:44:28;;;;;;;0.77;0.77;;;10.90;58.70;12.00;98234.00;;;;5011684;28;20699;-90
2022/01/18 11:47:28;;;;;;;0.60;0.50;;;11.30;57.30;12.90;98211.00;;;;5010809;28;20194;-90
2022/01/18 11:50:18;;;;;;;0.40;0.40;;;11.90;56.90;12.90;98229.00;;;;5009631;28;20213;-90
2022/01/18 11:53:39;;;;;;;1.10;0.60;;;12.30;56.10;12.50;98228.00;;;;4999453;28;20226;-91
2022/01/18 11:56:36;;;;;;;2.67;0.90;;;12.90;53.30;13.20;98244.00;;;;5001043;28;20213;-89
2022/01/18 11:59:27;;;;;;;0.80;0.47;;;13.20;52.90;12.40;98214.00;;;;5011101;28;20198;-90
2022/01/18 12:02:28;;;;;;;3.80;0.60;;;13.30;51.80;12.90;98210.00;;;;5012255;28;20201;-91
2022/01/18 12:05:21;;;;;;;0.47;0.47;;;13.40;52.40;12.80;98220.00;;;;4996358;28;20568;-90
2022/01/18 12:08:10;;;;;;;0.70;0.50;;;13.50;51.20;11.20;98214.00;;;;4997615;28;20602;-87
2022/01/18 12:10:59;;;;;;;0.80;0.50;;;12.90;51.30;12.20;98230.00;;;;5001182;28;20194;-90
2022/01/18 12:13:57;;;;;;;0.60;0.47;;;12.70;51.50;13.50;98228.00;;;;4998708;28;20233;-89
2022/01/18 12:16:50;;;;;;;1.73;0.50;;;13.00;52.40;13.50;98240.00;;;;5010961;28;20220;-88
2022/01/18 12:19:49;;;;;;;0.80;0.50;;;13.50;51.70;13.20;98231.00;;;;4995311;28;20198;-88
2022/01/18 12:23:05;;;;;;;0.43;0.43;;;13.60;50.40;13.40;98213.00;;;;5002261;28;20255;-87
2022/01/18 12:25:59;;;;;;;1.27;0.70;;;14.10;49.20;13.60;98205.00;;;;5004239;28;20210;-90
2022/01/18 12:29:19;;;;;;;0.43;0.40;;;14.20;49.60;13.80;98225.00;;;;5007763;28;20226;-88
2022/01/18 12:35:23;;;;;;;0.83;0.50;;;14.70;48.60;13.80;98222.00;;;;5002758;28;20210;-91
2022/01/18 12:38:22;;;;;;;0.50;0.50;;;14.60;47.70;15.00;98209.00;;;;5010095;28;20236;-90
2022/01/18 12:41:40;;;;;;;0.57;0.40;;;15.10;47.50;14.10;98231.00;;;;5000921;28;20210;-89
2022/01/18 12:44:28;;;;;;;1.30;0.40;;;15.30;47.00;14.00;98218.00;;;;5010910;28;20226;-90
2022/01/18 12:47:17;;;;;;;0.40;0.30;;;15.10;46.80;16.30;98227.00;;;;5008848;28;20222;-90
2022/01/18 12:50:09;;;;;;;0.40;0.40;;;15.50;47.70;15.30;98219.00;;;;5010109;28;20597;-91
2022/01/18 12:53:01;;;;;;;2.57;0.90;;;15.60;46.60;15.40;98218.00;;;;5000868;28;20722;-91
2022/01/18 12:55:55;;;;;;;0.30;0.30;;;15.80;46.40;16.00;98210.00;;;;5010054;28;20214;-89
2022/01/18 12:58:48;;;;;;;1.63;0.30;;;16.00;46.70;16.10;98213.00;;;;5010009;28;20206;-91
2022/01/18 13:01:37;;;;;;;0.50;0.47;;;16.40;45.80;15.70;98217.00;;;;5009295;28;20213;-90
2022/01/18 13:04:28;;;;;;;0.40;0.33;;;16.60;44.70;16.20;98233.00;;;;5002500;28;20258;-89
2022/01/18 13:07:16;;;;;;;1.60;0.30;;;16.70;45.10;18.00;98234.00;;;;5000127;28;20241;-90
2022/01/18 13:10:08;;;;;;;0.50;0.50;;;17.10;45.10;17.60;98234.00;;;;5008246;28;20202;-91
2022/01/18 13:12:59;;;;;;;0.30;0.30;;;17.80;44.10;17.80;98227.00;;;;5007610;28;20241;-91
2022/01/18 13:22:54;;;;;;;0.37;0.37;;;18.30;43.30;18.00;98227.00;;;;5004183;28;20237;-90
2022/01/18 13:25:27;;;;;;;0.30;0.30;;;17.70;41.90;16.80;98228.00;;;;4999023;28;20220;-90
2022/01/18 13:28:18;;;;;;;0.67;0.40;;;17.30;43.20;14.10;98213.00;;;;5006488;28;20229;-90
2022/01/18 13:31:17;;;;;;;1.03;0.60;;;16.90;42.50;16.40;98226.00;;;;5006682;28;20198;-89
2022/01/18 13:34:10;;;;;;;0.50;0.50;;;16.80;43.30;16.50;98239.00;;;;5009913;28;20249;-91
2022/01/18 13:37:02;;;;;;;0.40;0.40;;;17.00;43.30;16.80;98236.00;;;;5000824;28;20208;-89
2022/01/18 13:39:53;;;;;;;1.47;0.40;;;17.30;43.10;15.20;98231.00;;;;5003543;28;20207;-91
2022/01/18 13:42:45;;;;;;;0.40;0.30;;;17.10;42.50;14.80;98220.00;;;;4998532;28;20222;-89
2022/01/18 13:45:38;;;;;;;0.20;0.20;;;17.20;42.40;16.30;98238.00;;;;5002991;28;20200;-90
2022/01/18 13:48:32;;;;;;;0.30;0.30;;;16.90;43.30;18.40;98249.00;;;;5000967;28;20257;-89
2022/01/18 13:51:23;;;;;;;0.50;0.50;;;17.50;43.20;18.50;98246.00;;;;4999625;28;20218;-90
2022/01/18 13:54:15;;;;;;;1.27;0.47;;;18.10;42.60;19.70;98246.00;;;;4995164;28;20230;-91
2022/01/18 13:57:07;;;;;;;0.50;0.47;;;18.80;41.90;20.10;98255.00;;;;4996231;28;20199;-82
2022/01/18 13:59:56;;;;;;;0.97;0.50;;;19.40;41.60;20.00;98250.00;;;;5005275;28;20216;-82